createdAt,value
2023-03-05T00:00:56.719Z,38.92
2023-03-05T00:03:26.710Z,39.14
2023-03-05T00:06:00.136Z,39.62
2023-03-05T00:08:30.491Z,38.99
2023-03-05T00:11:01.281Z,37.68
2023-03-05T00:13:31.559Z,40.52
2023-03-05T00:16:06.891Z,40.37
2023-03-05T00:18:37.036Z,39.10
2023-03-05T00:21:08.325Z,40.36
2023-03-05T00:23:38.198Z,38.14
2023-03-05T00:26:08.061Z,40.43
2023-03-05T00:28:37.986Z,39.76
2023-03-05T00:31:10.608Z,39.02
2023-03-05T00:33:40.558Z,40.21
2023-03-05T00:36:11.808Z,38.33
2023-03-05T00:38:41.805Z,39.35
2023-03-05T00:41:11.705Z,38.96
2023-03-05T00:43:41.692Z,37.83
2023-03-05T00:46:14.202Z,37.66
2023-03-05T00:48:44.398Z,38.69
2023-03-05T00:51:14.410Z,38.46
2023-03-05T00:53:44.572Z,36.96
2023-03-05T00:56:14.557Z,38.34
2023-03-05T00:58:44.460Z,37.06
2023-03-05T01:01:17.727Z,36.25
2023-03-05T01:03:47.926Z,35.26
2023-03-05T01:06:19.222Z,35.63
2023-03-05T01:08:49.217Z,33.78
2023-03-05T01:11:19.249Z,34.98
2023-03-05T01:13:49.122Z,33.88
2023-03-05T01:16:21.785Z,34.85
2023-03-05T01:18:51.778Z,35.90
2023-03-05T01:21:22.165Z,33.77
2023-03-05T01:23:52.126Z,35.35
2023-03-05T01:26:22.169Z,35.83
2023-03-05T01:28:52.101Z,34.70
2023-03-05T01:31:24.777Z,35.00
2023-03-05T01:33:55.687Z,35.48
2023-03-05T01:36:26.125Z,35.14
2023-03-05T01:38:56.093Z,33.85
2023-03-05T01:41:26.915Z,33.91
2023-03-05T01:43:56.913Z,34.50
2023-03-05T01:46:39.561Z,34.48
2023-03-05T01:49:27.928Z,35.10
2023-03-05T01:52:05.408Z,33.09
2023-03-05T01:54:38.307Z,32.96
2023-03-05T01:57:14.854Z,32.45
2023-03-05T01:59:48.964Z,32.34
2023-03-05T02:02:23.830Z,33.70
2023-03-05T02:05:00.124Z,32.81
2023-03-05T02:07:30.797Z,34.15
2023-03-05T02:10:00.653Z,34.76
2023-03-05T02:12:33.386Z,34.66
2023-03-05T02:15:03.363Z,34.02
2023-03-05T02:17:35.814Z,34.05
2023-03-05T02:20:09.761Z,34.36
2023-03-05T02:22:42.277Z,34.58
2023-03-05T02:25:17.409Z,33.63
2023-03-05T02:27:55.170Z,36.67
2023-03-05T02:30:27.185Z,35.66
2023-03-05T02:32:57.234Z,35.28
2023-03-05T02:35:28.305Z,35.63
2023-03-05T02:38:01.152Z,35.38
2023-03-05T02:40:31.070Z,33.93
2023-03-05T02:43:00.998Z,34.49
2023-03-05T02:45:31.173Z,34.35
2023-03-05T02:48:01.087Z,36.06
2023-03-05T02:50:32.083Z,34.17
2023-03-05T02:53:04.697Z,34.21
2023-03-05T02:55:34.752Z,36.00
2023-03-05T02:58:07.152Z,34.97
2023-03-05T03:00:37.223Z,34.97
2023-03-05T03:03:07.292Z,34.53
2023-03-05T03:05:37.991Z,35.96
2023-03-05T03:08:11.508Z,35.06
2023-03-05T03:10:41.408Z,34.38
2023-03-05T03:13:11.278Z,34.47
2023-03-05T03:15:41.125Z,34.57
2023-03-05T03:18:11.038Z,35.37
2023-03-05T03:20:41.310Z,33.97
2023-03-05T03:23:13.760Z,34.60
2023-03-05T03:25:43.634Z,34.74
2023-03-05T03:28:13.539Z,34.66
2023-03-05T03:30:43.504Z,35.15
2023-03-05T03:33:13.424Z,35.92
2023-03-05T03:35:43.404Z,35.09
2023-03-05T03:38:16.271Z,35.68
2023-03-05T03:40:46.239Z,34.98
2023-03-05T03:43:16.166Z,33.99
2023-03-05T03:45:47.213Z,33.20
2023-03-05T03:48:17.246Z,34.20
2023-03-05T03:50:47.445Z,34.87
2023-03-05T03:53:19.944Z,35.12
2023-03-05T03:55:49.922Z,34.97
2023-03-05T03:58:19.792Z,34.50
2023-03-05T04:00:49.749Z,33.88
2023-03-05T04:03:19.643Z,33.61
2023-03-05T04:05:49.489Z,32.49
2023-03-05T04:08:22.179Z,33.61
2023-03-05T04:10:52.045Z,33.47
2023-03-05T04:13:21.969Z,33.36
2023-03-05T04:15:51.969Z,32.54
2023-03-05T04:18:21.930Z,35.16
2023-03-05T04:20:52.144Z,33.46
2023-03-05T04:23:24.614Z,33.51
2023-03-05T04:25:54.530Z,33.69
2023-03-05T04:28:24.402Z,34.21
2023-03-05T04:30:54.433Z,33.84
2023-03-05T04:33:24.358Z,35.18
2023-03-05T04:35:54.539Z,34.79
2023-03-05T04:38:27.072Z,33.78
2023-03-05T04:40:56.955Z,32.90
2023-03-05T04:43:26.833Z,34.59
2023-03-05T04:45:58.525Z,34.29
2023-03-05T04:48:28.680Z,35.08
2023-03-05T04:50:58.600Z,35.40
2023-03-05T04:53:31.201Z,33.35
2023-03-05T04:56:01.622Z,33.97
2023-03-05T04:58:32.405Z,33.21
2023-03-05T05:01:04.959Z,33.95
2023-03-05T05:03:35.891Z,32.56
2023-03-05T05:06:06.099Z,35.10
2023-03-05T05:08:38.999Z,35.27
2023-03-05T05:11:10.780Z,35.76
2023-03-05T05:13:40.632Z,34.73
2023-03-05T05:16:11.968Z,34.66
2023-03-05T05:18:41.884Z,34.96
2023-03-05T05:21:13.324Z,36.24
2023-03-05T05:23:45.806Z,36.15
2023-03-05T05:26:16.979Z,35.51
2023-03-05T05:28:47.195Z,37.92
2023-03-05T05:31:19.098Z,36.79
2023-03-05T05:33:49.975Z,37.90
2023-03-05T05:36:22.420Z,36.80
2023-03-05T05:38:54.973Z,35.33
2023-03-05T05:41:25.222Z,34.85
2023-03-05T05:43:55.116Z,35.73
2023-03-05T05:46:25.863Z,37.01
2023-03-05T05:48:55.788Z,35.17
2023-03-05T05:51:27.578Z,36.17
2023-03-05T05:54:00.069Z,36.26
2023-03-05T05:56:30.360Z,34.92
2023-03-05T05:59:00.370Z,36.55
2023-03-05T06:01:32.873Z,35.91
2023-03-05T06:04:03.682Z,36.49
2023-03-05T06:06:34.747Z,37.10
2023-03-05T06:09:07.825Z,36.89
2023-03-05T06:11:38.075Z,35.33
2023-03-05T06:14:08.813Z,36.59
2023-03-05T06:16:38.837Z,36.69
2023-03-05T06:19:09.176Z,35.34
2023-03-05T06:21:39.100Z,36.01
2023-03-05T06:24:12.404Z,35.98
2023-03-05T06:26:42.782Z,34.91
2023-03-05T06:29:12.670Z,36.15
2023-03-05T06:31:42.617Z,36.00
2023-03-05T06:34:13.126Z,36.31
2023-03-05T06:36:43.705Z,37.09
2023-03-05T06:39:16.205Z,35.04
2023-03-05T06:41:46.143Z,36.43
2023-03-05T06:44:16.012Z,36.73
2023-03-05T06:46:46.331Z,36.45
2023-03-05T06:49:16.410Z,36.39
2023-03-05T06:51:46.448Z,37.49
2023-03-05T06:54:20.150Z,37.71
2023-03-05T06:56:50.333Z,36.26
2023-03-05T06:59:21.662Z,36.72
2023-03-05T07:01:51.713Z,37.87
2023-03-05T07:04:24.348Z,35.46
2023-03-05T07:06:54.454Z,36.36
2023-03-05T07:09:26.927Z,37.26
2023-03-05T07:11:56.828Z,37.78
2023-03-05T07:14:27.058Z,36.59
2023-03-05T07:16:56.985Z,37.15
2023-03-05T07:19:26.985Z,35.98
2023-03-05T07:21:56.835Z,37.28
2023-03-05T07:24:30.024Z,37.48
2023-03-05T07:27:00.375Z,37.02
2023-03-05T07:29:31.175Z,38.51
2023-03-05T07:32:01.089Z,37.78
2023-03-05T07:34:30.977Z,38.71
2023-03-05T07:37:00.941Z,38.38
2023-03-05T07:39:33.425Z,39.75
2023-03-05T07:42:03.338Z,37.73
2023-03-05T07:44:50.167Z,38.81
2023-03-05T07:47:20.385Z,38.59
2023-03-05T07:49:50.229Z,41.78
2023-03-05T07:52:21.435Z,39.92
2023-03-05T07:54:54.003Z,38.45
2023-03-05T07:57:23.927Z,36.94
2023-03-05T07:59:53.758Z,37.82
2023-03-05T08:02:23.782Z,37.47
2023-03-05T08:04:53.729Z,40.40
2023-03-05T08:07:23.648Z,39.84
2023-03-05T08:09:56.292Z,38.44
2023-03-05T08:12:26.203Z,43.02
2023-03-05T08:14:56.185Z,39.79
2023-03-05T08:17:26.102Z,38.97
2023-03-05T08:19:59.706Z,40.32
2023-03-05T08:22:29.985Z,41.00
2023-03-05T08:25:02.543Z,42.15
2023-03-05T08:27:32.435Z,39.74
2023-03-05T08:30:04.311Z,40.57
2023-03-05T08:32:34.328Z,40.25
2023-03-05T08:35:04.792Z,39.94
2023-03-05T08:37:34.804Z,40.41
2023-03-05T08:40:08.353Z,38.77
2023-03-05T08:42:38.337Z,39.42
2023-03-05T08:45:09.537Z,38.01
2023-03-05T08:47:39.512Z,38.52
2023-03-05T08:50:10.445Z,37.52
2023-03-05T08:52:40.420Z,36.79
2023-03-05T08:55:15.250Z,38.52
2023-03-05T08:57:45.200Z,37.32
2023-03-05T09:00:16.466Z,36.30
2023-03-05T09:02:46.406Z,39.63
2023-03-05T09:05:16.478Z,38.04
2023-03-05T09:07:46.385Z,41.77
2023-03-05T09:10:19.853Z,38.41
2023-03-05T09:12:49.752Z,37.59
2023-03-05T09:15:19.837Z,37.71
2023-03-05T09:17:49.693Z,36.98
2023-03-05T09:20:20.018Z,37.06
2023-03-05T09:22:49.865Z,36.30
2023-03-05T09:25:22.950Z,41.37
2023-03-05T09:27:52.873Z,37.75
2023-03-05T09:30:23.495Z,39.40
2023-03-05T09:32:53.881Z,42.59
2023-03-05T09:35:23.959Z,36.42
2023-03-05T09:37:53.914Z,33.15
2023-03-05T09:40:27.184Z,31.96
2023-03-05T09:43:08.292Z,33.89
2023-03-05T09:45:47.231Z,33.64
2023-03-05T09:48:23.018Z,34.10
2023-03-05T09:51:03.173Z,37.64
2023-03-05T09:53:41.814Z,36.15
2023-03-05T09:56:19.491Z,33.25
2023-03-05T09:58:56.082Z,32.74
2023-03-05T10:01:34.730Z,33.13
2023-03-05T10:04:12.904Z,32.68
2023-03-05T10:06:53.045Z,31.77
2023-03-05T10:09:44.360Z,30.71
2023-03-05T10:12:28.010Z,29.72
2023-03-05T10:15:00.657Z,30.62
2023-03-05T10:18:00.915Z,32.47
2023-03-05T10:20:51.962Z,30.52
2023-03-05T10:23:54.879Z,32.07
2023-03-05T10:26:38.520Z,29.71
2023-03-05T10:29:33.865Z,30.30
2023-03-05T10:32:18.891Z,29.44
2023-03-05T10:35:15.738Z,27.06
2023-03-05T10:38:06.752Z,27.33
2023-03-05T10:40:43.703Z,28.11
2023-03-05T10:43:26.749Z,27.47
2023-03-05T10:46:02.742Z,28.25
2023-03-05T10:48:42.142Z,27.25
2023-03-05T10:51:19.638Z,27.73
2023-03-05T10:53:58.428Z,28.73
2023-03-05T10:56:31.899Z,28.21
2023-03-05T10:59:01.906Z,32.64
2023-03-05T11:01:34.472Z,31.00
2023-03-05T11:04:07.480Z,29.70
2023-03-05T11:06:40.184Z,29.10
2023-03-05T11:09:20.659Z,27.84
2023-03-05T11:12:08.575Z,28.50
2023-03-05T11:14:42.595Z,28.79
2023-03-05T11:17:32.531Z,29.86
2023-03-05T11:20:33.993Z,30.60
2023-03-05T11:23:12.576Z,27.90
2023-03-05T11:25:58.790Z,27.36
2023-03-05T11:28:33.588Z,27.92
2023-03-05T11:31:08.487Z,26.62
2023-03-05T11:33:41.332Z,27.94
2023-03-05T11:36:25.812Z,27.47
2023-03-05T11:38:59.723Z,27.20
2023-03-05T11:41:35.473Z,28.86
2023-03-05T11:44:13.710Z,29.29
2023-03-05T11:46:47.458Z,29.64
2023-03-05T11:49:26.986Z,28.50
2023-03-05T11:52:08.231Z,28.63
2023-03-05T11:54:50.905Z,27.61
2023-03-05T11:57:24.027Z,27.91
2023-03-05T11:59:58.397Z,26.36
2023-03-05T12:02:30.714Z,26.81
2023-03-05T12:05:04.604Z,27.69
2023-03-05T12:07:40.841Z,26.31
2023-03-05T12:10:19.094Z,26.71
2023-03-05T12:12:57.395Z,28.23
2023-03-05T12:15:53.567Z,27.84
2023-03-05T12:18:41.472Z,26.80
2023-03-05T12:21:33.048Z,25.99
2023-03-05T12:24:05.620Z,25.47
2023-03-05T12:27:00.041Z,25.71
2023-03-05T12:29:32.998Z,25.69
2023-03-05T12:32:05.025Z,25.90
2023-03-05T12:34:48.207Z,26.98
2023-03-05T12:38:25.898Z,26.61
2023-03-05T12:41:45.820Z,26.76
2023-03-05T12:44:21.794Z,25.24
2023-03-05T12:47:26.976Z,24.51
2023-03-05T12:49:57.554Z,25.19
2023-03-05T12:52:30.987Z,25.55
2023-03-05T12:55:17.967Z,25.15
2023-03-05T12:57:56.287Z,26.17
2023-03-05T13:00:34.001Z,24.66
2023-03-05T13:03:12.708Z,25.73
2023-03-05T13:05:52.297Z,24.79
2023-03-05T13:08:26.892Z,24.50
2023-03-05T13:11:00.791Z,25.48
2023-03-05T13:13:39.030Z,25.38
2023-03-05T13:16:19.238Z,25.87
2023-03-05T13:18:51.625Z,24.74
2023-03-05T13:21:27.084Z,24.67
2023-03-05T13:24:00.600Z,24.55
2023-03-05T13:26:33.183Z,23.82
2023-03-05T13:29:14.802Z,23.69
2023-03-05T13:31:47.161Z,23.90
2023-03-05T13:34:24.580Z,23.49
2023-03-05T13:37:00.806Z,24.13
2023-03-05T13:39:35.749Z,23.09
2023-03-05T13:42:08.583Z,23.56
2023-03-05T13:44:41.200Z,24.70
2023-03-05T13:47:22.275Z,24.99
2023-03-05T13:50:00.222Z,22.64
2023-03-05T13:52:32.625Z,23.12
2023-03-05T13:55:05.378Z,29.14
2023-03-05T13:57:38.984Z,26.92
2023-03-05T14:00:37.239Z,24.49
2023-03-05T14:03:14.045Z,25.88
2023-03-05T14:05:47.191Z,28.70
2023-03-05T14:08:24.780Z,24.86
2023-03-05T14:10:57.122Z,22.43
2023-03-05T14:13:32.125Z,20.87
2023-03-05T14:16:16.009Z,22.54
2023-03-05T14:18:57.477Z,28.16
2023-03-05T14:21:28.460Z,31.47
2023-03-05T14:23:58.378Z,33.49
2023-03-05T14:26:32.854Z,30.16
2023-03-05T14:29:05.662Z,29.50
2023-03-05T14:31:49.987Z,31.40
2023-03-05T14:34:27.293Z,33.23
2023-03-05T14:37:00.426Z,33.03
2023-03-05T14:39:37.116Z,30.34
2023-03-05T14:42:28.053Z,29.82
2023-03-05T14:44:59.628Z,30.72
2023-03-05T14:47:32.660Z,31.06
2023-03-05T14:50:02.595Z,31.00
2023-03-05T14:52:34.113Z,30.57
2023-03-05T14:55:04.450Z,31.53
2023-03-05T14:57:35.192Z,33.31
2023-03-05T15:00:05.148Z,35.93
2023-03-05T15:02:37.672Z,31.82
2023-03-05T15:07:59.549Z,30.10
2023-03-05T15:10:29.597Z,29.05
2023-03-05T15:12:59.571Z,30.00
2023-03-05T15:15:30.310Z,28.46
2023-03-05T15:18:02.826Z,28.86
2023-03-05T15:20:33.884Z,32.58
2023-03-05T15:23:03.838Z,30.49
2023-03-05T15:25:34.141Z,31.39
2023-03-05T15:28:04.196Z,34.35
2023-03-05T15:30:36.624Z,33.03
2023-03-05T15:33:11.476Z,34.92
2023-03-05T15:35:41.830Z,33.70
2023-03-05T15:38:11.912Z,31.41
2023-03-05T15:40:44.204Z,30.92
2023-03-05T15:43:14.192Z,31.29
2023-03-05T15:45:44.320Z,29.59
2023-03-05T15:48:16.923Z,29.99
2023-03-05T15:50:47.254Z,30.56
2023-03-05T15:53:18.480Z,31.02
2023-03-05T15:55:48.720Z,30.52
2023-03-05T15:58:20.043Z,29.41
2023-03-05T16:00:50.093Z,30.05
2023-03-05T16:03:23.205Z,30.25
2023-03-05T16:05:53.175Z,30.24
2023-03-05T16:08:23.138Z,29.78
2023-03-05T16:10:53.052Z,33.67
2023-03-05T16:13:23.140Z,29.71
2023-03-05T16:15:54.677Z,29.17
2023-03-05T16:18:28.239Z,28.88
2023-03-05T16:20:58.484Z,31.63
2023-03-05T16:23:28.473Z,33.73
2023-03-05T16:25:59.698Z,32.01
2023-03-05T16:28:29.852Z,29.65
2023-03-05T16:31:02.021Z,28.82
2023-03-05T16:33:34.717Z,29.12
2023-03-05T16:36:24.824Z,28.53
2023-03-05T16:38:57.219Z,32.98
2023-03-05T16:41:29.247Z,31.55
2023-03-05T16:43:59.676Z,28.77
2023-03-05T16:46:33.939Z,29.74
2023-03-05T16:49:08.581Z,30.01
2023-03-05T16:51:39.305Z,29.33
2023-03-05T16:54:10.197Z,28.07
2023-03-05T16:56:40.259Z,27.28
2023-03-05T16:59:10.248Z,27.37
2023-03-05T17:01:40.273Z,26.15
2023-03-05T17:04:12.794Z,27.11
2023-03-05T17:06:42.804Z,30.86
2023-03-05T17:09:13.039Z,31.81
2023-03-05T17:11:43.113Z,29.97
2023-03-05T17:14:13.751Z,29.18
2023-03-05T17:16:43.880Z,28.83
2023-03-05T17:19:19.837Z,28.86
2023-03-05T17:21:52.205Z,29.21
2023-03-05T17:24:23.445Z,28.25
2023-03-05T17:26:53.416Z,27.24
2023-03-05T17:29:23.364Z,30.01
2023-03-05T17:31:53.900Z,30.12
2023-03-05T17:34:35.861Z,31.30
2023-03-05T17:37:07.775Z,30.92
2023-03-05T17:39:37.743Z,30.14
2023-03-05T17:42:07.827Z,29.30
2023-03-05T17:44:37.715Z,28.06
2023-03-05T17:47:07.842Z,28.15
2023-03-05T17:49:40.325Z,28.79
2023-03-05T17:52:10.297Z,29.68
2023-03-05T17:54:40.317Z,29.28
2023-03-05T17:57:10.184Z,29.59
2023-03-05T17:59:40.043Z,29.79
2023-03-05T18:02:10.147Z,31.52
2023-03-05T18:04:44.015Z,33.68
2023-03-05T18:07:14.054Z,34.43
2023-03-05T18:09:43.912Z,32.59
2023-03-05T18:12:13.806Z,33.60
2023-03-05T18:14:43.715Z,36.61
2023-03-05T18:17:13.607Z,37.02
2023-03-05T18:19:46.136Z,37.45
2023-03-05T18:22:16.016Z,37.37
2023-03-05T18:24:45.991Z,35.28
2023-03-05T18:27:15.944Z,34.56
2023-03-05T18:29:46.027Z,34.41
2023-03-05T18:32:15.943Z,35.36
2023-03-05T18:34:50.523Z,34.52
2023-03-05T18:37:20.550Z,34.98
2023-03-05T18:39:50.460Z,32.90
2023-03-05T18:42:20.420Z,31.65
2023-03-05T18:44:50.358Z,31.36
2023-03-05T18:47:20.240Z,30.79
2023-03-05T18:49:53.298Z,31.21
2023-03-05T18:52:23.226Z,31.70
2023-03-05T18:54:53.290Z,32.44
2023-03-05T18:57:23.164Z,33.25
2023-03-05T18:59:53.189Z,34.61
2023-03-05T19:02:23.155Z,33.16
2023-03-05T19:04:55.670Z,32.34
2023-03-05T19:07:25.758Z,30.69
2023-03-05T19:10:02.360Z,29.67
2023-03-05T19:12:35.261Z,29.16
2023-03-05T19:15:06.276Z,27.87
2023-03-05T19:17:36.220Z,28.11
2023-03-05T19:20:11.177Z,28.26
2023-03-05T19:22:41.148Z,29.01
2023-03-05T19:25:13.757Z,27.37
2023-03-05T19:27:43.622Z,27.14
2023-03-05T19:30:16.278Z,28.62
2023-03-05T19:32:47.255Z,27.26
2023-03-05T19:35:20.826Z,27.97
2023-03-05T19:37:50.728Z,27.33
2023-03-05T19:40:21.342Z,26.47
2023-03-05T19:42:51.180Z,26.26
2023-03-05T19:45:21.304Z,25.52
2023-03-05T19:47:51.240Z,25.33
2023-03-05T19:50:23.878Z,26.32
2023-03-05T19:52:53.740Z,25.48
2023-03-05T19:55:23.742Z,26.28
2023-03-05T19:57:53.668Z,25.52
2023-03-05T20:00:26.386Z,25.83
2023-03-05T20:02:56.333Z,26.78
2023-03-05T20:05:28.830Z,26.80
2023-03-05T20:07:58.722Z,25.26
2023-03-05T20:10:28.554Z,24.71
2023-03-05T20:12:58.540Z,23.97
2023-03-05T20:15:29.745Z,24.19
2023-03-05T20:18:00.696Z,22.62
2023-03-05T20:20:33.497Z,23.16
2023-03-05T20:23:03.445Z,24.25
2023-03-05T20:25:33.330Z,24.88
2023-03-05T20:28:03.729Z,24.90
2023-03-05T20:30:33.808Z,25.28
2023-03-05T20:33:04.310Z,25.89
2023-03-05T20:35:36.923Z,24.10
2023-03-05T20:38:20.958Z,24.60
2023-03-05T20:40:51.267Z,24.76
2023-03-05T20:43:22.607Z,24.81
2023-03-05T20:45:53.779Z,25.73
2023-03-05T20:48:23.827Z,22.02
2023-03-05T20:50:57.057Z,21.69
2023-03-05T20:53:27.504Z,21.26
2023-03-05T20:55:57.467Z,24.43
2023-03-05T20:58:27.369Z,24.29
2023-03-05T21:00:57.488Z,24.72
2023-03-05T21:03:27.412Z,23.38
2023-03-05T21:06:00.009Z,21.52
2023-03-05T21:08:29.996Z,22.05
2023-03-05T21:11:00.007Z,22.03
2023-03-05T21:13:30.913Z,22.47
2023-03-05T21:16:01.115Z,21.29
2023-03-05T21:18:31.291Z,20.82
2023-03-05T21:21:03.944Z,23.33
2023-03-05T21:23:33.965Z,21.03
2023-03-05T21:26:04.929Z,19.61
2023-03-05T21:28:35.705Z,19.58
2023-03-05T21:31:11.435Z,19.42
2023-03-05T21:33:42.238Z,18.71
2023-03-05T21:36:19.074Z,18.99
2023-03-05T21:38:49.188Z,19.60
2023-03-05T21:41:20.618Z,18.70
2023-03-05T21:43:50.517Z,19.15
2023-03-05T21:46:20.405Z,18.39
2023-03-05T21:48:50.397Z,19.01
2023-03-05T21:51:28.350Z,17.88
2023-03-05T21:53:58.404Z,18.02
2023-03-05T21:56:31.126Z,18.01
2023-03-05T21:59:02.197Z,18.33
2023-03-05T22:01:32.182Z,18.09
2023-03-05T22:04:02.215Z,17.86
2023-03-05T22:06:34.949Z,18.83
2023-03-05T22:09:04.873Z,17.88
2023-03-05T22:11:34.872Z,17.90
2023-03-05T22:14:04.837Z,18.40
2023-03-05T22:16:34.972Z,18.18
2023-03-05T22:19:05.915Z,18.87
2023-03-05T22:21:38.522Z,19.01
2023-03-05T22:24:09.007Z,17.82
2023-03-05T22:26:41.710Z,17.94
2023-03-05T22:29:13.071Z,18.89
2023-03-05T22:31:43.333Z,21.45
2023-03-05T22:34:13.466Z,21.25
2023-03-05T22:36:46.021Z,19.86
2023-03-05T22:39:16.027Z,20.87
2023-03-05T22:41:46.032Z,20.18
2023-03-05T22:44:15.920Z,20.95
2023-03-05T22:46:46.960Z,20.86
2023-03-05T22:49:16.873Z,21.09
2023-03-05T22:51:49.384Z,20.38
2023-03-05T22:54:19.264Z,20.19
2023-03-05T22:56:49.234Z,20.29
2023-03-05T22:59:19.186Z,21.18
2023-03-05T23:01:49.286Z,21.16
2023-03-05T23:04:39.156Z,19.86
2023-03-05T23:07:11.833Z,20.21
2023-03-05T23:09:41.719Z,21.45
2023-03-05T23:12:12.373Z,20.82
2023-03-05T23:14:42.391Z,20.64
2023-03-05T23:17:12.380Z,21.10
2023-03-05T23:19:42.216Z,21.04
2023-03-05T23:22:16.647Z,20.31
2023-03-05T23:24:46.624Z,20.34
2023-03-05T23:27:18.573Z,20.56
2023-03-05T23:29:58.917Z,20.55
2023-03-05T23:32:31.320Z,20.82
2023-03-05T23:35:01.194Z,20.45
2023-03-05T23:37:33.693Z,19.76
2023-03-05T23:40:03.522Z,21.71
2023-03-05T23:42:33.550Z,21.01
2023-03-05T23:45:03.541Z,20.44
2023-03-05T23:47:33.420Z,21.39
2023-03-05T23:50:03.244Z,20.73
2023-03-05T23:52:36.239Z,20.80
2023-03-05T23:55:06.722Z,21.08
2023-03-05T23:57:36.814Z,21.33
